sensor_id;sensor_type;location;lat;lon;timestamp;P1;durP1;ratioP1;P2;durP2;ratioP2
78799;SDS011;68148;55.328;86.106;2023-04-24T00:01:06;24.30;;;7.70;;
78799;SDS011;68148;55.328;86.106;2023-04-24T00:03:32;17.10;;;7.38;;
78799;SDS011;68148;55.328;86.106;2023-04-24T00:05:57;22.65;;;7.15;;
78799;SDS011;68148;55.328;86.106;2023-04-24T00:08:24;25.02;;;7.10;;
78799;SDS011;68148;55.328;86.106;2023-04-24T00:10:50;25.42;;;6.85;;
78799;SDS011;68148;55.328;86.106;2023-04-24T00:13:16;9.85;;;4.32;;
78799;SDS011;68148;55.328;86.106;2023-04-24T00:15:41;24.92;;;6.80;;
78799;SDS011;68148;55.328;86.106;2023-04-24T00:18:07;11.90;;;5.03;;
78799;SDS011;68148;55.328;86.106;2023-04-24T00:20:33;11.40;;;4.28;;
78799;SDS011;68148;55.328;86.106;2023-04-24T00:22:59;10.38;;;4.63;;
78799;SDS011;68148;55.328;86.106;2023-04-24T00:25:25;22.70;;;5.80;;
78799;SDS011;68148;55.328;86.106;2023-04-24T00:27:51;19.10;;;4.75;;
78799;SDS011;68148;55.328;86.106;2023-04-24T00:30:17;13.68;;;5.07;;
78799;SDS011;68148;55.328;86.106;2023-04-24T00:32:42;17.27;;;4.72;;
78799;SDS011;68148;55.328;86.106;2023-04-24T00:35:08;13.43;;;4.53;;
78799;SDS011;68148;55.328;86.106;2023-04-24T00:37:34;17.08;;;4.85;;
78799;SDS011;68148;55.328;86.106;2023-04-24T00:40:00;9.82;;;4.82;;
78799;SDS011;68148;55.328;86.106;2023-04-24T00:42:25;13.88;;;4.50;;
78799;SDS011;68148;55.328;86.106;2023-04-24T00:44:51;27.23;;;4.32;;
78799;SDS011;68148;55.328;86.106;2023-04-24T00:47:18;21.25;;;4.18;;
78799;SDS011;68148;55.328;86.106;2023-04-24T00:49:44;8.50;;;3.38;;
78799;SDS011;68148;55.328;86.106;2023-04-24T00:52:10;14.48;;;4.20;;
78799;SDS011;68148;55.328;86.106;2023-04-24T00:54:36;20.67;;;4.22;;
78799;SDS011;68148;55.328;86.106;2023-04-24T00:57:02;43.58;;;6.25;;
78799;SDS011;68148;55.328;86.106;2023-04-24T00:59:31;10.77;;;4.32;;
78799;SDS011;68148;55.328;86.106;2023-04-24T01:01:57;13.93;;;3.85;;
78799;SDS011;68148;55.328;86.106;2023-04-24T01:04:23;14.55;;;4.85;;
78799;SDS011;68148;55.328;86.106;2023-04-24T01:06:50;22.23;;;4.32;;
78799;SDS011;68148;55.328;86.106;2023-04-24T01:09:16;8.80;;;4.13;;
78799;SDS011;68148;55.328;86.106;2023-04-24T01:11:43;12.75;;;4.70;;
78799;SDS011;68148;55.328;86.106;2023-04-24T01:14:09;10.05;;;3.22;;
78799;SDS011;68148;55.328;86.106;2023-04-24T01:16:35;15.85;;;3.88;;
78799;SDS011;68148;55.328;86.106;2023-04-24T01:19:01;11.82;;;4.00;;
78799;SDS011;68148;55.328;86.106;2023-04-24T01:21:27;18.00;;;3.78;;
78799;SDS011;68148;55.328;86.106;2023-04-24T01:23:55;10.93;;;3.72;;
78799;SDS011;68148;55.328;86.106;2023-04-24T01:26:22;13.85;;;3.60;;
78799;SDS011;68148;55.328;86.106;2023-04-24T01:28:48;8.70;;;4.05;;
78799;SDS011;68148;55.328;86.106;2023-04-24T01:31:14;11.13;;;3.08;;
78799;SDS011;68148;55.328;86.106;2023-04-24T01:33:41;17.30;;;3.55;;
78799;SDS011;68148;55.328;86.106;2023-04-24T01:36:09;13.27;;;3.92;;
78799;SDS011;68148;55.328;86.106;2023-04-24T01:38:36;20.17;;;3.50;;
78799;SDS011;68148;55.328;86.106;2023-04-24T01:41:02;24.73;;;3.38;;
78799;SDS011;68148;55.328;86.106;2023-04-24T01:43:29;20.92;;;3.22;;
78799;SDS011;68148;55.328;86.106;2023-04-24T01:45:55;20.65;;;3.72;;
78799;SDS011;68148;55.328;86.106;2023-04-24T01:48:20;19.30;;;4.70;;
78799;SDS011;68148;55.328;86.106;2023-04-24T01:50:47;17.00;;;4.18;;
78799;SDS011;68148;55.328;86.106;2023-04-24T01:53:13;14.35;;;3.40;;
78799;SDS011;68148;55.328;86.106;2023-04-24T01:55:39;10.98;;;3.70;;
78799;SDS011;68148;55.328;86.106;2023-04-24T01:58:06;21.00;;;4.95;;
78799;SDS011;68148;55.328;86.106;2023-04-24T02:00:32;14.98;;;4.07;;
78799;SDS011;68148;55.328;86.106;2023-04-24T02:02:58;16.90;;;4.45;;
78799;SDS011;68148;55.328;86.106;2023-04-24T02:05:24;11.00;;;3.25;;
78799;SDS011;68148;55.328;86.106;2023-04-24T02:07:50;22.15;;;4.03;;
78799;SDS011;68148;55.328;86.106;2023-04-24T02:10:15;10.48;;;3.92;;
78799;SDS011;68148;55.328;86.106;2023-04-24T02:12:41;21.38;;;3.83;;
78799;SDS011;68148;55.328;86.106;2023-04-24T02:15:08;9.57;;;3.17;;
78799;SDS011;68148;55.328;86.106;2023-04-24T02:17:34;17.33;;;4.10;;
78799;SDS011;68148;55.328;86.106;2023-04-24T02:20:00;19.02;;;4.50;;
78799;SDS011;68148;55.328;86.106;2023-04-24T02:22:26;15.55;;;3.83;;
78799;SDS011;68148;55.328;86.106;2023-04-24T02:24:52;19.08;;;3.88;;
78799;SDS011;68148;55.328;86.106;2023-04-24T02:27:18;12.75;;;4.30;;
78799;SDS011;68148;55.328;86.106;2023-04-24T02:29:44;17.50;;;4.15;;
78799;SDS011;68148;55.328;86.106;2023-04-24T02:32:09;17.33;;;4.78;;
78799;SDS011;68148;55.328;86.106;2023-04-24T02:34:35;22.30;;;4.35;;
78799;SDS011;68148;55.328;86.106;2023-04-24T02:37:01;16.30;;;4.32;;
78799;SDS011;68148;55.328;86.106;2023-04-24T02:39:27;25.95;;;4.15;;
78799;SDS011;68148;55.328;86.106;2023-04-24T02:41:53;17.50;;;4.70;;
78799;SDS011;68148;55.328;86.106;2023-04-24T02:44:19;20.98;;;4.57;;
78799;SDS011;68148;55.328;86.106;2023-04-24T02:46:45;11.38;;;4.00;;
78799;SDS011;68148;55.328;86.106;2023-04-24T02:49:11;13.93;;;4.47;;
78799;SDS011;68148;55.328;86.106;2023-04-24T02:51:37;14.48;;;3.72;;
78799;SDS011;68148;55.328;86.106;2023-04-24T02:54:02;16.25;;;4.13;;
78799;SDS011;68148;55.328;86.106;2023-04-24T02:56:29;17.75;;;3.83;;
78799;SDS011;68148;55.328;86.106;2023-04-24T02:58:54;14.63;;;3.85;;
78799;SDS011;68148;55.328;86.106;2023-04-24T03:01:20;22.88;;;5.88;;
78799;SDS011;68148;55.328;86.106;2023-04-24T03:03:46;15.10;;;3.63;;
78799;SDS011;68148;55.328;86.106;2023-04-24T03:06:12;14.35;;;4.93;;
78799;SDS011;68148;55.328;86.106;2023-04-24T03:08:37;11.65;;;4.07;;
78799;SDS011;68148;55.328;86.106;2023-04-24T03:11:04;21.75;;;4.90;;
78799;SDS011;68148;55.328;86.106;2023-04-24T03:13:29;7.60;;;3.50;;
78799;SDS011;68148;55.328;86.106;2023-04-24T03:15:55;23.52;;;5.97;;
78799;SDS011;68148;55.328;86.106;2023-04-24T03:18:21;19.48;;;4.63;;
78799;SDS011;68148;55.328;86.106;2023-04-24T03:20:46;17.58;;;5.70;;
78799;SDS011;68148;55.328;86.106;2023-04-24T03:23:12;23.75;;;5.70;;
78799;SDS011;68148;55.328;86.106;2023-04-24T03:25:39;19.70;;;4.60;;
78799;SDS011;68148;55.328;86.106;2023-04-24T03:28:05;19.55;;;5.40;;
78799;SDS011;68148;55.328;86.106;2023-04-24T03:30:31;9.95;;;2.90;;
78799;SDS011;68148;55.328;86.106;2023-04-24T03:32:57;14.93;;;3.85;;
78799;SDS011;68148;55.328;86.106;2023-04-24T03:35:23;16.65;;;5.20;;
78799;SDS011;68148;55.328;86.106;2023-04-24T03:37:49;33.47;;;6.95;;
78799;SDS011;68148;55.328;86.106;2023-04-24T03:40:15;26.75;;;7.78;;
78799;SDS011;68148;55.328;86.106;2023-04-24T03:42:40;41.05;;;12.65;;
78799;SDS011;68148;55.328;86.106;2023-04-24T03:45:06;51.03;;;15.88;;
78799;SDS011;68148;55.328;86.106;2023-04-24T03:47:33;47.20;;;18.13;;
78799;SDS011;68148;55.328;86.106;2023-04-24T03:49:58;43.10;;;16.35;;
78799;SDS011;68148;55.328;86.106;2023-04-24T03:52:24;32.72;;;13.65;;
78799;SDS011;68148;55.328;86.106;2023-04-24T03:54:50;30.73;;;9.25;;
78799;SDS011;68148;55.328;86.106;2023-04-24T03:57:15;26.27;;;7.15;;
78799;SDS011;68148;55.328;86.106;2023-04-24T03:59:41;27.83;;;8.90;;
78799;SDS011;68148;55.328;86.106;2023-04-24T04:02:07;15.27;;;4.90;;
78799;SDS011;68148;55.328;86.106;2023-04-24T04:04:33;17.67;;;4.65;;
78799;SDS011;68148;55.328;86.106;2023-04-24T04:06:59;14.93;;;4.03;;
78799;SDS011;68148;55.328;86.106;2023-04-24T04:09:25;23.92;;;5.38;;
78799;SDS011;68148;55.328;86.106;2023-04-24T04:11:50;12.70;;;4.43;;
78799;SDS011;68148;55.328;86.106;2023-04-24T04:14:17;15.70;;;3.80;;
78799;SDS011;68148;55.328;86.106;2023-04-24T04:16:42;23.77;;;5.38;;
78799;SDS011;68148;55.328;86.106;2023-04-24T04:19:08;26.48;;;4.43;;
78799;SDS011;68148;55.328;86.106;2023-04-24T04:21:34;16.55;;;5.07;;
78799;SDS011;68148;55.328;86.106;2023-04-24T04:24:00;17.30;;;3.70;;
78799;SDS011;68148;55.328;86.106;2023-04-24T04:26:26;13.43;;;4.18;;
78799;SDS011;68148;55.328;86.106;2023-04-24T04:28:52;12.70;;;3.40;;
78799;SDS011;68148;55.328;86.106;2023-04-24T04:31:18;12.45;;;5.15;;
78799;SDS011;68148;55.328;86.106;2023-04-24T04:33:45;9.32;;;3.42;;
78799;SDS011;68148;55.328;86.106;2023-04-24T04:36:11;15.65;;;4.63;;
78799;SDS011;68148;55.328;86.106;2023-04-24T04:38:36;16.90;;;4.00;;
78799;SDS011;68148;55.328;86.106;2023-04-24T04:41:03;18.00;;;3.35;;
78799;SDS011;68148;55.328;86.106;2023-04-24T04:43:29;22.58;;;3.92;;
78799;SDS011;68148;55.328;86.106;2023-04-24T04:45:55;17.65;;;5.35;;
78799;SDS011;68148;55.328;86.106;2023-04-24T04:48:20;19.42;;;3.65;;
78799;SDS011;68148;55.328;86.106;2023-04-24T04:50:47;26.95;;;4.45;;
78799;SDS011;68148;55.328;86.106;2023-04-24T04:53:13;17.00;;;5.80;;
78799;SDS011;68148;55.328;86.106;2023-04-24T04:55:38;15.50;;;4.45;;
78799;SDS011;68148;55.328;86.106;2023-04-24T04:58:04;20.15;;;4.20;;
78799;SDS011;68148;55.328;86.106;2023-04-24T05:00:30;16.45;;;3.90;;
78799;SDS011;68148;55.328;86.106;2023-04-24T05:02:56;17.55;;;4.13;;
78799;SDS011;68148;55.328;86.106;2023-04-24T05:05:22;15.80;;;4.50;;
78799;SDS011;68148;55.328;86.106;2023-04-24T05:07:48;14.35;;;3.20;;
78799;SDS011;68148;55.328;86.106;2023-04-24T05:10:14;13.55;;;3.40;;
78799;SDS011;68148;55.328;86.106;2023-04-24T05:12:39;12.77;;;2.90;;
78799;SDS011;68148;55.328;86.106;2023-04-24T05:15:05;12.23;;;3.60;;
78799;SDS011;68148;55.328;86.106;2023-04-24T05:17:32;20.08;;;3.88;;
78799;SDS011;68148;55.328;86.106;2023-04-24T05:19:58;15.15;;;3.00;;
78799;SDS011;68148;55.328;86.106;2023-04-24T05:22:23;22.02;;;3.47;;
78799;SDS011;68148;55.328;86.106;2023-04-24T05:24:49;14.98;;;2.58;;
78799;SDS011;68148;55.328;86.106;2023-04-24T05:27:15;14.95;;;3.47;;
78799;SDS011;68148;55.328;86.106;2023-04-24T05:29:41;24.58;;;3.65;;
78799;SDS011;68148;55.328;86.106;2023-04-24T05:32:06;17.98;;;3.72;;
78799;SDS011;68148;55.328;86.106;2023-04-24T05:34:32;14.70;;;3.63;;
78799;SDS011;68148;55.328;86.106;2023-04-24T05:36:58;14.77;;;4.07;;
78799;SDS011;68148;55.328;86.106;2023-04-24T05:39:24;18.13;;;3.13;;
78799;SDS011;68148;55.328;86.106;2023-04-24T05:41:49;10.68;;;2.50;;
78799;SDS011;68148;55.328;86.106;2023-04-24T05:44:15;11.30;;;3.33;;
78799;SDS011;68148;55.328;86.106;2023-04-24T05:46:41;15.55;;;3.08;;
78799;SDS011;68148;55.328;86.106;2023-04-24T05:49:06;11.20;;;3.03;;
78799;SDS011;68148;55.328;86.106;2023-04-24T05:51:32;10.85;;;2.92;;
78799;SDS011;68148;55.328;86.106;2023-04-24T05:53:58;15.18;;;3.08;;
78799;SDS011;68148;55.328;86.106;2023-04-24T05:56:24;18.08;;;3.45;;
78799;SDS011;68148;55.328;86.106;2023-04-24T05:58:50;10.05;;;2.85;;
78799;SDS011;68148;55.328;86.106;2023-04-24T06:01:16;12.48;;;2.30;;
78799;SDS011;68148;55.328;86.106;2023-04-24T06:03:42;12.32;;;2.85;;
78799;SDS011;68148;55.328;86.106;2023-04-24T06:06:07;10.18;;;3.05;;
78799;SDS011;68148;55.328;86.106;2023-04-24T06:08:34;16.33;;;3.35;;
78799;SDS011;68148;55.328;86.106;2023-04-24T06:11:01;11.85;;;3.05;;
78799;SDS011;68148;55.328;86.106;2023-04-24T06:13:29;14.98;;;3.35;;
78799;SDS011;68148;55.328;86.106;2023-04-24T06:15:54;26.45;;;3.42;;
78799;SDS011;68148;55.328;86.106;2023-04-24T06:18:20;11.20;;;2.58;;
78799;SDS011;68148;55.328;86.106;2023-04-24T06:20:46;19.65;;;2.63;;
78799;SDS011;68148;55.328;86.106;2023-04-24T06:23:12;21.67;;;3.20;;
78799;SDS011;68148;55.328;86.106;2023-04-24T06:25:39;12.30;;;3.38;;
78799;SDS011;68148;55.328;86.106;2023-04-24T06:28:05;22.40;;;3.67;;
78799;SDS011;68148;55.328;86.106;2023-04-24T06:30:31;9.68;;;3.28;;
78799;SDS011;68148;55.328;86.106;2023-04-24T06:32:57;19.77;;;3.00;;
78799;SDS011;68148;55.328;86.106;2023-04-24T06:35:23;13.93;;;2.95;;
78799;SDS011;68148;55.328;86.106;2023-04-24T06:37:49;16.05;;;3.35;;
78799;SDS011;68148;55.328;86.106;2023-04-24T06:40:16;15.90;;;3.45;;
78799;SDS011;68148;55.328;86.106;2023-04-24T06:42:41;24.52;;;3.45;;
78799;SDS011;68148;55.328;86.106;2023-04-24T06:45:07;16.10;;;4.13;;
78799;SDS011;68148;55.328;86.106;2023-04-24T06:47:33;21.45;;;3.90;;
78799;SDS011;68148;55.328;86.106;2023-04-24T06:49:59;21.15;;;3.60;;
78799;SDS011;68148;55.328;86.106;2023-04-24T06:52:25;16.00;;;3.97;;
78799;SDS011;68148;55.328;86.106;2023-04-24T06:54:51;17.13;;;3.22;;
78799;SDS011;68148;55.328;86.106;2023-04-24T06:57:17;22.02;;;3.80;;
78799;SDS011;68148;55.328;86.106;2023-04-24T06:59:43;23.17;;;3.80;;
78799;SDS011;68148;55.328;86.106;2023-04-24T07:02:09;18.65;;;4.07;;
78799;SDS011;68148;55.328;86.106;2023-04-24T07:04:35;21.00;;;4.10;;
78799;SDS011;68148;55.328;86.106;2023-04-24T07:07:01;19.15;;;3.40;;
78799;SDS011;68148;55.328;86.106;2023-04-24T07:09:28;17.98;;;3.92;;
78799;SDS011;68148;55.328;86.106;2023-04-24T07:11:54;22.98;;;4.22;;
78799;SDS011;68148;55.328;86.106;2023-04-24T07:14:20;15.57;;;3.72;;
78799;SDS011;68148;55.328;86.106;2023-04-24T07:16:45;14.93;;;3.47;;
78799;SDS011;68148;55.328;86.106;2023-04-24T07:19:12;16.83;;;3.95;;
78799;SDS011;68148;55.328;86.106;2023-04-24T07:21:38;13.23;;;3.83;;
78799;SDS011;68148;55.328;86.106;2023-04-24T07:24:05;14.05;;;3.97;;
78799;SDS011;68148;55.328;86.106;2023-04-24T07:26:31;47.50;;;5.68;;
78799;SDS011;68148;55.328;86.106;2023-04-24T07:28:57;11.20;;;3.35;;
78799;SDS011;68148;55.328;86.106;2023-04-24T07:31:23;15.27;;;4.00;;
78799;SDS011;68148;55.328;86.106;2023-04-24T07:33:49;12.13;;;2.90;;
78799;SDS011;68148;55.328;86.106;2023-04-24T07:36:15;13.38;;;3.60;;
78799;SDS011;68148;55.328;86.106;2023-04-24T07:38:44;14.15;;;3.67;;
78799;SDS011;68148;55.328;86.106;2023-04-24T07:41:13;16.15;;;3.10;;
78799;SDS011;68148;55.328;86.106;2023-04-24T07:43:40;16.40;;;2.92;;
78799;SDS011;68148;55.328;86.106;2023-04-24T07:46:06;12.35;;;3.17;;
78799;SDS011;68148;55.328;86.106;2023-04-24T07:48:33;13.70;;;2.97;;
78799;SDS011;68148;55.328;86.106;2023-04-24T07:50:59;16.95;;;4.10;;
78799;SDS011;68148;55.328;86.106;2023-04-24T07:53:25;9.82;;;3.47;;
78799;SDS011;68148;55.328;86.106;2023-04-24T07:55:56;7.60;;;2.80;;
78799;SDS011;68148;55.328;86.106;2023-04-24T07:58:22;17.25;;;3.03;;
78799;SDS011;68148;55.328;86.106;2023-04-24T08:00:48;13.35;;;3.42;;
78799;SDS011;68148;55.328;86.106;2023-04-24T08:03:14;16.20;;;3.03;;
78799;SDS011;68148;55.328;86.106;2023-04-24T08:05:40;6.80;;;2.20;;
78799;SDS011;68148;55.328;86.106;2023-04-24T08:08:06;17.35;;;3.60;;
78799;SDS011;68148;55.328;86.106;2023-04-24T08:10:32;9.90;;;2.15;;
78799;SDS011;68148;55.328;86.106;2023-04-24T08:12:58;9.73;;;2.42;;
78799;SDS011;68148;55.328;86.106;2023-04-24T08:15:24;14.68;;;3.03;;
78799;SDS011;68148;55.328;86.106;2023-04-24T08:17:50;11.35;;;3.17;;
78799;SDS011;68148;55.328;86.106;2023-04-24T08:20:16;15.55;;;2.90;;
78799;SDS011;68148;55.328;86.106;2023-04-24T08:22:42;9.40;;;2.88;;
78799;SDS011;68148;55.328;86.106;2023-04-24T08:25:09;5.85;;;2.40;;
78799;SDS011;68148;55.328;86.106;2023-04-24T08:27:36;14.13;;;2.70;;
78799;SDS011;68148;55.328;86.106;2023-04-24T08:30:03;5.22;;;1.85;;
78799;SDS011;68148;55.328;86.106;2023-04-24T08:32:30;15.50;;;2.58;;
78799;SDS011;68148;55.328;86.106;2023-04-24T08:34:56;13.52;;;1.92;;
78799;SDS011;68148;55.328;86.106;2023-04-24T08:37:23;5.43;;;1.40;;
78799;SDS011;68148;55.328;86.106;2023-04-24T08:39:49;14.00;;;1.75;;
78799;SDS011;68148;55.328;86.106;2023-04-24T08:42:16;8.10;;;1.83;;
78799;SDS011;68148;55.328;86.106;2023-04-24T08:44:43;11.18;;;1.70;;
78799;SDS011;68148;55.328;86.106;2023-04-24T08:47:10;13.02;;;1.90;;
78799;SDS011;68148;55.328;86.106;2023-04-24T08:49:37;6.05;;;1.58;;
78799;SDS011;68148;55.328;86.106;2023-04-24T08:52:06;4.63;;;1.80;;
78799;SDS011;68148;55.328;86.106;2023-04-24T08:54:34;5.45;;;1.48;;
78799;SDS011;68148;55.328;86.106;2023-04-24T08:57:01;5.40;;;1.63;;
78799;SDS011;68148;55.328;86.106;2023-04-24T08:59:28;4.05;;;1.45;;
78799;SDS011;68148;55.328;86.106;2023-04-24T09:01:55;9.70;;;1.42;;
78799;SDS011;68148;55.328;86.106;2023-04-24T09:04:22;6.10;;;1.20;;
78799;SDS011;68148;55.328;86.106;2023-04-24T09:06:51;6.65;;;1.13;;
78799;SDS011;68148;55.328;86.106;2023-04-24T09:09:21;18.25;;;1.80;;
78799;SDS011;68148;55.328;86.106;2023-04-24T09:11:51;8.13;;;1.98;;
78799;SDS011;68148;55.328;86.106;2023-04-24T09:14:18;6.40;;;1.30;;
78799;SDS011;68148;55.328;86.106;2023-04-24T09:16:44;8.25;;;1.52;;
78799;SDS011;68148;55.328;86.106;2023-04-24T09:19:10;6.03;;;1.77;;
78799;SDS011;68148;55.328;86.106;2023-04-24T09:21:36;7.90;;;1.45;;
78799;SDS011;68148;55.328;86.106;2023-04-24T09:24:03;6.05;;;1.40;;
78799;SDS011;68148;55.328;86.106;2023-04-24T09:26:32;9.50;;;1.33;;
78799;SDS011;68148;55.328;86.106;2023-04-24T09:28:59;3.05;;;1.40;;
78799;SDS011;68148;55.328;86.106;2023-04-24T09:31:26;6.38;;;1.60;;
78799;SDS011;68148;55.328;86.106;2023-04-24T09:33:54;2.25;;;1.17;;
78799;SDS011;68148;55.328;86.106;2023-04-24T09:36:28;6.85;;;1.67;;
78799;SDS011;68148;55.328;86.106;2023-04-24T09:38:59;11.50;;;1.38;;
78799;SDS011;68148;55.328;86.106;2023-04-24T09:41:26;11.60;;;1.98;;
78799;SDS011;68148;55.328;86.106;2023-04-24T09:43:56;10.80;;;1.80;;
78799;SDS011;68148;55.328;86.106;2023-04-24T09:46:30;15.35;;;1.48;;
78799;SDS011;68148;55.328;86.106;2023-04-24T09:48:56;4.07;;;1.50;;
78799;SDS011;68148;55.328;86.106;2023-04-24T09:51:34;10.60;;;1.40;;
78799;SDS011;68148;55.328;86.106;2023-04-24T09:54:01;14.20;;;1.90;;
78799;SDS011;68148;55.328;86.106;2023-04-24T09:56:29;7.25;;;1.35;;
78799;SDS011;68148;55.328;86.106;2023-04-24T09:59:04;10.32;;;1.70;;
78799;SDS011;68148;55.328;86.106;2023-04-24T10:03:59;5.57;;;1.70;;
78799;SDS011;68148;55.328;86.106;2023-04-24T10:06:35;7.07;;;1.63;;
78799;SDS011;68148;55.328;86.106;2023-04-24T10:09:02;4.68;;;1.17;;
78799;SDS011;68148;55.328;86.106;2023-04-24T10:11:28;9.00;;;1.52;;
78799;SDS011;68148;55.328;86.106;2023-04-24T10:13:55;5.32;;;1.95;;
78799;SDS011;68148;55.328;86.106;2023-04-24T10:16:21;4.43;;;1.10;;
78799;SDS011;68148;55.328;86.106;2023-04-24T10:18:48;5.70;;;1.48;;
78799;SDS011;68148;55.328;86.106;2023-04-24T10:21:14;5.05;;;1.30;;
78799;SDS011;68148;55.328;86.106;2023-04-24T10:23:42;4.60;;;1.00;;
78799;SDS011;68148;55.328;86.106;2023-04-24T10:26:12;7.13;;;1.00;;
78799;SDS011;68148;55.328;86.106;2023-04-24T10:28:38;8.35;;;2.00;;
78799;SDS011;68148;55.328;86.106;2023-04-24T10:31:06;5.03;;;1.48;;
78799;SDS011;68148;55.328;86.106;2023-04-24T10:33:34;10.05;;;1.73;;
78799;SDS011;68148;55.328;86.106;2023-04-24T10:36:01;10.10;;;1.30;;
78799;SDS011;68148;55.328;86.106;2023-04-24T10:38:27;10.25;;;1.40;;
78799;SDS011;68148;55.328;86.106;2023-04-24T10:43:36;4.13;;;1.65;;
78799;SDS011;68148;55.328;86.106;2023-04-24T10:46:05;2.00;;;1.20;;
78799;SDS011;68148;55.328;86.106;2023-04-24T10:48:32;3.10;;;1.42;;
78799;SDS011;68148;55.328;86.106;2023-04-24T10:50:58;7.88;;;1.30;;
78799;SDS011;68148;55.328;86.106;2023-04-24T10:53:27;3.45;;;1.08;;
78799;SDS011;68148;55.328;86.106;2023-04-24T10:56:05;5.55;;;1.75;;
78799;SDS011;68148;55.328;86.106;2023-04-24T10:58:50;4.47;;;1.58;;
78799;SDS011;68148;55.328;86.106;2023-04-24T11:01:30;4.35;;;1.90;;
78799;SDS011;68148;55.328;86.106;2023-04-24T11:03:58;10.40;;;1.90;;
78799;SDS011;68148;55.328;86.106;2023-04-24T11:06:32;6.18;;;2.03;;
78799;SDS011;68148;55.328;86.106;2023-04-24T11:09:05;6.82;;;1.90;;
78799;SDS011;68148;55.328;86.106;2023-04-24T11:11:33;8.38;;;2.53;;
78799;SDS011;68148;55.328;86.106;2023-04-24T11:16:26;3.90;;;1.42;;
78799;SDS011;68148;55.328;86.106;2023-04-24T11:18:52;4.82;;;0.85;;
78799;SDS011;68148;55.328;86.106;2023-04-24T11:21:30;4.50;;;1.45;;
78799;SDS011;68148;55.328;86.106;2023-04-24T11:27:39;4.93;;;1.50;;
78799;SDS011;68148;55.328;86.106;2023-04-24T11:32:23;3.70;;;1.45;;
78799;SDS011;68148;55.328;86.106;2023-04-24T11:34:54;10.50;;;1.70;;
78799;SDS011;68148;55.328;86.106;2023-04-24T11:37:21;6.25;;;1.40;;
78799;SDS011;68148;55.328;86.106;2023-04-24T11:39:50;7.28;;;1.45;;
78799;SDS011;68148;55.328;86.106;2023-04-24T11:42:23;3.28;;;1.58;;
78799;SDS011;68148;55.328;86.106;2023-04-24T11:44:49;3.78;;;1.30;;
78799;SDS011;68148;55.328;86.106;2023-04-24T11:47:17;9.65;;;1.10;;
78799;SDS011;68148;55.328;86.106;2023-04-24T11:49:43;4.72;;;1.10;;
78799;SDS011;68148;55.328;86.106;2023-04-24T11:52:09;7.85;;;1.27;;
78799;SDS011;68148;55.328;86.106;2023-04-24T11:54:34;5.32;;;1.40;;
78799;SDS011;68148;55.328;86.106;2023-04-24T11:57:03;7.63;;;1.70;;
78799;SDS011;68148;55.328;86.106;2023-04-24T11:59:34;6.70;;;1.27;;
78799;SDS011;68148;55.328;86.106;2023-04-24T12:02:00;7.45;;;1.30;;
78799;SDS011;68148;55.328;86.106;2023-04-24T12:04:26;5.38;;;1.67;;
78799;SDS011;68148;55.328;86.106;2023-04-24T12:07:03;4.95;;;1.40;;
78799;SDS011;68148;55.328;86.106;2023-04-24T12:09:39;9.32;;;1.70;;
78799;SDS011;68148;55.328;86.106;2023-04-24T12:12:06;9.23;;;2.10;;
78799;SDS011;68148;55.328;86.106;2023-04-24T12:14:31;8.23;;;2.20;;
78799;SDS011;68148;55.328;86.106;2023-04-24T12:16:57;5.43;;;1.98;;
78799;SDS011;68148;55.328;86.106;2023-04-24T12:19:23;6.40;;;2.28;;
78799;SDS011;68148;55.328;86.106;2023-04-24T12:21:59;7.75;;;2.00;;
78799;SDS011;68148;55.328;86.106;2023-04-24T12:29:20;4.10;;;1.88;;
78799;SDS011;68148;55.328;86.106;2023-04-24T12:31:46;20.23;;;1.70;;
78799;SDS011;68148;55.328;86.106;2023-04-24T12:34:19;8.23;;;1.85;;
78799;SDS011;68148;55.328;86.106;2023-04-24T12:36:48;4.85;;;2.05;;
78799;SDS011;68148;55.328;86.106;2023-04-24T12:39:15;9.73;;;2.20;;
78799;SDS011;68148;55.328;86.106;2023-04-24T12:42:17;18.85;;;2.75;;
78799;SDS011;68148;55.328;86.106;2023-04-24T12:44:37;5.13;;;1.50;;
78799;SDS011;68148;55.328;86.106;2023-04-24T12:47:02;14.30;;;2.53;;
78799;SDS011;68148;55.328;86.106;2023-04-24T12:49:31;8.55;;;2.00;;
78799;SDS011;68148;55.328;86.106;2023-04-24T12:51:57;13.75;;;2.33;;
78799;SDS011;68148;55.328;86.106;2023-04-24T12:54:23;8.98;;;1.92;;
78799;SDS011;68148;55.328;86.106;2023-04-24T12:56:49;9.55;;;2.15;;
78799;SDS011;68148;55.328;86.106;2023-04-24T12:59:15;13.57;;;1.60;;
78799;SDS011;68148;55.328;86.106;2023-04-24T13:01:41;14.40;;;2.50;;
78799;SDS011;68148;55.328;86.106;2023-04-24T13:04:07;8.10;;;1.80;;
78799;SDS011;68148;55.328;86.106;2023-04-24T13:06:33;7.80;;;1.88;;
78799;SDS011;68148;55.328;86.106;2023-04-24T13:08:59;32.78;;;12.82;;
78799;SDS011;68148;55.328;86.106;2023-04-24T13:11:25;65.35;;;25.83;;
78799;SDS011;68148;55.328;86.106;2023-04-24T13:13:51;95.90;;;38.13;;
78799;SDS011;68148;55.328;86.106;2023-04-24T13:16:16;60.72;;;25.27;;
78799;SDS011;68148;55.328;86.106;2023-04-24T13:18:42;30.40;;;11.38;;
78799;SDS011;68148;55.328;86.106;2023-04-24T13:21:08;23.77;;;5.40;;
78799;SDS011;68148;55.328;86.106;2023-04-24T13:23:34;28.67;;;5.72;;
78799;SDS011;68148;55.328;86.106;2023-04-24T13:26:00;19.48;;;4.30;;
78799;SDS011;68148;55.328;86.106;2023-04-24T13:28:26;18.60;;;4.38;;
78799;SDS011;68148;55.328;86.106;2023-04-24T13:30:52;21.95;;;4.35;;
78799;SDS011;68148;55.328;86.106;2023-04-24T13:33:18;13.77;;;2.97;;
78799;SDS011;68148;55.328;86.106;2023-04-24T13:35:44;9.93;;;2.72;;
78799;SDS011;68148;55.328;86.106;2023-04-24T13:38:09;8.27;;;2.67;;
78799;SDS011;68148;55.328;86.106;2023-04-24T13:40:35;9.18;;;2.63;;
78799;SDS011;68148;55.328;86.106;2023-04-24T13:43:01;6.35;;;1.90;;
78799;SDS011;68148;55.328;86.106;2023-04-24T13:45:27;15.88;;;2.15;;
78799;SDS011;68148;55.328;86.106;2023-04-24T13:47:53;8.07;;;2.92;;
78799;SDS011;68148;55.328;86.106;2023-04-24T13:50:19;10.05;;;1.88;;
78799;SDS011;68148;55.328;86.106;2023-04-24T13:52:46;10.13;;;2.10;;
78799;SDS011;68148;55.328;86.106;2023-04-24T13:55:11;8.98;;;2.42;;
78799;SDS011;68148;55.328;86.106;2023-04-24T13:57:37;12.30;;;2.17;;
78799;SDS011;68148;55.328;86.106;2023-04-24T14:00:03;17.15;;;2.50;;
78799;SDS011;68148;55.328;86.106;2023-04-24T14:04:57;21.13;;;3.67;;
78799;SDS011;68148;55.328;86.106;2023-04-24T14:07:23;16.90;;;2.85;;
78799;SDS011;68148;55.328;86.106;2023-04-24T14:09:49;15.57;;;3.60;;
78799;SDS011;68148;55.328;86.106;2023-04-24T14:12:15;15.07;;;3.50;;
78799;SDS011;68148;55.328;86.106;2023-04-24T14:14:43;17.67;;;3.45;;
78799;SDS011;68148;55.328;86.106;2023-04-24T14:17:09;123.47;;;48.05;;
78799;SDS011;68148;55.328;86.106;2023-04-24T14:19:35;41.40;;;17.45;;
78799;SDS011;68148;55.328;86.106;2023-04-24T14:22:01;41.08;;;12.18;;
78799;SDS011;68148;55.328;86.106;2023-04-24T14:24:27;102.00;;;34.75;;
78799;SDS011;68148;55.328;86.106;2023-04-24T14:26:53;119.00;;;49.17;;
78799;SDS011;68148;55.328;86.106;2023-04-24T14:29:19;71.43;;;26.95;;
78799;SDS011;68148;55.328;86.106;2023-04-24T14:31:44;101.03;;;34.80;;
78799;SDS011;68148;55.328;86.106;2023-04-24T14:34:10;77.07;;;29.00;;
78799;SDS011;68148;55.328;86.106;2023-04-24T14:36:36;37.95;;;14.02;;
78799;SDS011;68148;55.328;86.106;2023-04-24T14:39:02;44.08;;;10.52;;
78799;SDS011;68148;55.328;86.106;2023-04-24T14:41:28;49.53;;;13.73;;